Capt. C.j. — WDG9929 — position and weather

sailwx.info

Track history (hours):
 
Tides and Currents Weather Stations Pressure Air Temp Water Temp Dewpoint Dewpoint Depression Visibility Wind Speed Wind Dir Waves Ship Positions

Capt. C.j.

Owner: Daigle Towing Service LLC., Belle Chasse, LA. More information available from US FCC via Universal Licensing System and Coast Guard Vessel Documentation Center.

Last reported at 2018-Jun-11 04:44 UTC. Time now 2018-Jun-18 23:19 UTC.
Position N 29°34' W 090°29'.

Length 21 m; draft 2.8 m.

Type: Towing. MMSI: 367592640.

Date/timePositionNaut miles runAvg speedWind from/ knotsBaromVisibWave heightAir tempDewpointWater temp
2018-Jun-11 04:44N 29°34' W 090°29'2 7.8
2018-Jun-11 04:30N 29°34' W 090°31'4 7.6
2018-Jun-11 04:00N 29°35' W 090°35'4 7.3
2018-Jun-11 03:30N 29°36' W 090°39'3 5.6
2018-Jun-11 03:00N 29°36' W 090°43'3 6.7
2018-Jun-11 02:30N 29°34' W 090°45'4 7.1
2018-Jun-11 02:00N 29°32' W 090°49'1 0.0
2018-Jun-10 01:03N 29°32' W 090°50'0 6.0
2018-Jun-10 00:59N 29°32' W 090°50'3 5.9
2018-Jun-10 00:30N 29°32' W 090°46'3 5.1
2018-Jun-10 00:00N 29°34' W 090°44'1 2.6
2018-Jun-09 23:30N 29°34' W 090°43'3 5.6
2018-Jun-09 23:00N 29°31' W 090°43'3 5.9
2018-Jun-09 22:30N 29°28' W 090°43'  
2018-Jun-05 16:24N 29°24' W 090°44'3 6.9
2018-Jun-05 16:00N 29°27' W 090°43'3 6.7
2018-Jun-05 15:30N 29°30' W 090°43'3 6.2
2018-Jun-05 15:01N 29°33' W 090°43'1 2.0
2018-Jun-05 14:30N 29°34' W 090°44'2 4.8
2018-Jun-05 14:00N 29°32' W 090°46'3 6.7
2018-Jun-05 13:30N 29°32' W 090°49'62 4.0
2018-Jun-04 21:55N 29°50' W 091°58'2 5.3
2018-Jun-04 21:30N 29°50' W 092°00'3 5.4
2018-Jun-04 21:01N 29°49' W 092°03'3 5.5
2018-Jun-04 20:30N 29°48' W 092°06'3 5.5
2018-Jun-04 20:01N 29°47' W 092°09'2 4.3
2018-Jun-04 19:30N 29°47' W 092°12'1 1.7
2018-Jun-04 19:00N 29°47' W 092°12'1 1.3
2018-Jun-04 18:30N 29°47' W 092°13'1 1.7
2018-Jun-04 18:01N 29°48' W 092°14'2 3.4
2018-Jun-04 17:30N 29°48' W 092°16'2 3.1
2018-Jun-04 17:01N 29°49' W 092°17'0 0.1
2018-Jun-04 16:30N 29°49' W 092°17'0 0.0
2018-Jun-04 16:00N 29°49' W 092°17'1 1.1
2018-Jun-04 15:30N 29°50' W 092°18'2 3.9
2018-Jun-04 15:00N 29°50' W 092°20'3 4.9
2018-Jun-04 14:26N 29°52' W 092°22'36 4.9
2018-Jun-04 07:09N 29°56' W 093°04'1 4.1
2018-Jun-04 07:00N 29°56' W 093°04'2 4.3
2018-Jun-04 06:30N 29°56' W 093°07'3 5.0
2018-Jun-04 06:01N 29°56' W 093°10'3 5.2
2018-Jun-04 05:30N 29°58' W 093°11'2 4.6
2018-Jun-04 04:59N 29°60' W 093°13'2 4.3
2018-Jun-04 04:30N 30°02' W 093°15'2 4.0
2018-Jun-04 04:01N 30°03' W 093°16'2 4.1
2018-Jun-04 03:30N 30°05' W 093°17'1 1.2
2018-Jun-04 03:01N 30°05' W 093°18'1 1.1
2018-Jun-04 02:30N 30°06' W 093°18'0 0.0
2018-Jun-04 02:01N 30°06' W 093°18'0 0.0
2018-Jun-04 01:30N 30°06' W 093°18'0 0.0
2018-Jun-04 01:00N 30°06' W 093°18'0 0.0
2018-Jun-04 00:31N 30°06' W 093°18'0 0.0
2018-Jun-04 00:00N 30°06' W 093°18'0 0.1
2018-Jun-03 23:30N 30°06' W 093°18'0 0.2
2018-Jun-03 23:00N 30°06' W 093°18'2 3.1
2018-Jun-03 22:31N 30°05' W 093°20'2 4.6
2018-Jun-03 22:00N 30°04' W 093°22'2 4.1
2018-Jun-03 21:31N 30°04' W 093°24'2 4.6
2018-Jun-03 21:00N 30°04' W 093°27'3 5.7
2018-Jun-03 20:31N 30°04' W 093°30'3 5.6
2018-Jun-03 20:00N 30°04' W 093°33'3 5.6
2018-Jun-03 19:30N 30°04' W 093°37'3 6.1
2018-Jun-03 19:00N 30°04' W 093°40'3 5.9
2018-Jun-03 18:31N 30°03' W 093°43'3 5.6
2018-Jun-03 18:01N 30°01' W 093°45'3 5.9
2018-Jun-03 17:31N 29°59' W 093°48'3 5.7
2018-Jun-03 17:00N 29°58' W 093°51'3 6.7
2018-Jun-03 16:30N 29°55' W 093°53'3 6.7
2018-Jun-03 16:00N 29°53' W 093°56'3 6.6
2018-Jun-03 15:30N 29°50' W 093°57'3 5.5
2018-Jun-03 15:01N 29°47' W 093°57'3 5.3
2018-Jun-03 14:30N 29°46' W 093°54'2 4.4
2018-Jun-03 14:01N 29°44' W 093°52'0 0.4
2018-Jun-03 13:30N 29°44' W 093°52'0 0.1
2018-Jun-03 13:00N 29°44' W 093°52'0 0.0
2018-Jun-03 12:31N 29°44' W 093°52'0 0.0
2018-Jun-03 12:00N 29°44' W 093°52'0 0.0
2018-Jun-03 11:30N 29°44' W 093°52'0 0.0
2018-Jun-03 11:00N 29°44' W 093°52'0 0.0
2018-Jun-03 10:28N 29°44' W 093°52'0 0.0
2018-Jun-03 10:00N 29°44' W 093°52'0 0.0
2018-Jun-03 09:31N 29°44' W 093°52'0 0.0
2018-Jun-03 09:00N 29°44' W 093°52'0 0.0
2018-Jun-03 08:30N 29°44' W 093°52'0 0.0
2018-Jun-03 08:00N 29°44' W 093°52'0 0.0
2018-Jun-03 07:30N 29°44' W 093°52'0 0.0
2018-Jun-03 07:00N 29°44' W 093°52'0 0.0
2018-Jun-03 06:30N 29°44' W 093°52'0 0.0
2018-Jun-03 06:00N 29°44' W 093°52'0 0.0
2018-Jun-03 05:30N 29°44' W 093°52'0 0.0
2018-Jun-03 05:01N 29°44' W 093°52'0 0.0
2018-Jun-03 04:31N 29°44' W 093°52'0 0.0
2018-Jun-03 04:00N 29°44' W 093°52'0 0.0
2018-Jun-03 03:30N 29°44' W 093°52'0 0.0
2018-Jun-03 03:00N 29°44' W 093°52'0 0.0
2018-Jun-03 02:31N 29°44' W 093°52'0 0.0
2018-Jun-03 02:00N 29°44' W 093°52'0 0.0
2018-Jun-03 01:30N 29°44' W 093°52'0 0.0
2018-Jun-03 01:00N 29°44' W 093°52'0 0.0
2018-Jun-03 00:30N 29°44' W 093°52'0 0.0
2018-Jun-03 00:01N 29°44' W 093°52'0 0.0
2018-Jun-02 23:30N 29°44' W 093°52'0 0.0
2018-Jun-02 23:00N 29°44' W 093°52'0 0.0
2018-Jun-02 22:30N 29°44' W 093°52'0 0.0
2018-Jun-02 22:00N 29°44' W 093°52'0 0.0
2018-Jun-02 21:31N 29°44' W 093°52'0 0.0
2018-Jun-02 21:00N 29°44' W 093°52'0 0.0
2018-Jun-02 20:30N 29°44' W 093°52'0 0.0
2018-Jun-02 20:00N 29°44' W 093°52'0 0.0
2018-Jun-02 19:30N 29°44' W 093°52'0 0.0
2018-Jun-02 19:00N 29°44' W 093°52'0 0.0
2018-Jun-02 18:31N 29°44' W 093°52'0 0.0
2018-Jun-02 18:01N 29°44' W 093°52'0 0.0
2018-Jun-02 17:31N 29°44' W 093°52'0 0.0
2018-Jun-02 17:00N 29°44' W 093°52'0 0.0
2018-Jun-02 16:30N 29°44' W 093°52'0 0.0
2018-Jun-02 16:00N 29°44' W 093°52'0 0.0
2018-Jun-02 15:31N 29°44' W 093°52'0 0.0
2018-Jun-02 15:00N 29°44' W 093°52'0 0.0
2018-Jun-02 14:30N 29°44' W 093°52'0 0.0
2018-Jun-02 14:01N 29°44' W 093°52'0 0.0
2018-Jun-02 13:31N 29°44' W 093°52'0 0.0
2018-Jun-02 13:01N 29°44' W 093°52'0 0.0
2018-Jun-02 12:30N 29°44' W 093°52'0 0.0
2018-Jun-02 11:59N 29°44' W 093°52'0 0.0
2018-Jun-02 11:30N 29°44' W 093°52'0 0.0
2018-Jun-02 11:00N 29°44' W 093°52'0 0.0
2018-Jun-02 10:31N 29°44' W 093°52'0 0.0
2018-Jun-02 10:01N 29°44' W 093°52'0 0.0
2018-Jun-02 09:30N 29°44' W 093°52'0 0.0
2018-Jun-02 09:01N 29°44' W 093°52'0 0.0
2018-Jun-02 08:31N 29°44' W 093°52'0 0.0
2018-Jun-02 08:00N 29°44' W 093°52'0 0.0
2018-Jun-02 07:30N 29°44' W 093°52'0 0.0
2018-Jun-02 07:01N 29°44' W 093°52'0 0.0
2018-Jun-02 06:31N 29°44' W 093°52'0 0.0
2018-Jun-02 06:00N 29°44' W 093°52'0 0.0
2018-Jun-02 05:31N 29°44' W 093°52'0 0.0
2018-Jun-02 05:00N 29°44' W 093°52'0 0.0
2018-Jun-02 04:31N 29°44' W 093°52'0 0.0
2018-Jun-02 04:00N 29°44' W 093°52'0 0.0
2018-Jun-02 03:30N 29°44' W 093°52'0 0.0
2018-Jun-02 03:01N 29°44' W 093°52'0 0.0
2018-Jun-02 02:30N 29°44' W 093°52'0 0.0
2018-Jun-02 02:00N 29°44' W 093°52'0 0.0
2018-Jun-02 01:29N 29°44' W 093°52'0 0.0
2018-Jun-02 01:00N 29°44' W 093°52'0 0.0
2018-Jun-02 00:30N 29°44' W 093°52'0 0.0
2018-Jun-02 00:00N 29°44' W 093°52'0 0.0
2018-Jun-01 23:31N 29°44' W 093°52'0 0.0
2018-Jun-01 23:01N 29°44' W 093°52'0 0.0
2018-Jun-01 22:31N 29°44' W 093°52'0 0.0
2018-Jun-01 22:00N 29°44' W 093°52'0 0.0
2018-Jun-01 21:30N 29°44' W 093°52'0 0.0
2018-Jun-01 21:01N 29°44' W 093°52'0 0.0
2018-Jun-01 20:31N 29°44' W 093°52'0 0.0
2018-Jun-01 20:00N 29°44' W 093°52'0 0.0
2018-Jun-01 19:31N 29°44' W 093°52'0 0.0
2018-Jun-01 19:00N 29°44' W 093°52'0 0.0
2018-Jun-01 18:31N 29°44' W 093°52'0 0.0
2018-Jun-01 18:00N 29°44' W 093°52'0 0.0
2018-Jun-01 17:30N 29°44' W 093°52'0 0.0
2018-Jun-01 17:01N 29°44' W 093°52'0 0.0
2018-Jun-01 16:30N 29°44' W 093°52'0 0.0
2018-Jun-01 16:00N 29°44' W 093°52'0 0.0
2018-Jun-01 15:30N 29°44' W 093°52'0 0.0
2018-Jun-01 15:01N 29°44' W 093°52'0 0.0
2018-Jun-01 14:31N 29°44' W 093°52'0 0.0
2018-Jun-01 14:00N 29°44' W 093°52'0 0.0
2018-Jun-01 13:30N 29°44' W 093°52'0 0.0
2018-Jun-01 13:00N 29°44' W 093°52'0 0.0
2018-Jun-01 12:31N 29°44' W 093°52'0 0.1
2018-Jun-01 12:00N 29°44' W 093°52'0 0.0
2018-Jun-01 11:31N 29°44' W 093°52'0 0.0
2018-Jun-01 11:00N 29°44' W 093°52'0 0.0
2018-Jun-01 10:30N 29°44' W 093°52'0 0.0
2018-Jun-01 10:00N 29°44' W 093°52'0 0.0
2018-Jun-01 09:30N 29°44' W 093°52'0 0.0
2018-Jun-01 09:01N 29°44' W 093°52'0 0.0
2018-Jun-01 08:31N 29°44' W 093°52'0 0.0
2018-Jun-01 08:00N 29°44' W 093°52'0 0.0
2018-Jun-01 07:31N 29°44' W 093°52'0 0.0
2018-Jun-01 06:59N 29°44' W 093°52'0 0.0
2018-Jun-01 06:29N 29°44' W 093°52'0 0.0
2018-Jun-01 06:00N 29°44' W 093°52'0 0.0
2018-Jun-01 05:30N 29°44' W 093°52'0 0.0
2018-Jun-01 05:01N 29°44' W 093°52'  
Track history (hours):
 
Tides and Currents Weather Stations Pressure Air Temp Water Temp Dewpoint Dewpoint Depression Visibility Wind Speed Wind Dir Waves Ship Positions

Capt. C.j.

Owner: Daigle Towing Service LLC., Belle Chasse, LA. More information available from US FCC via Universal Licensing System and Coast Guard Vessel Documentation Center.

Last reported at 2018-Jun-11 04:44 UTC. Time now 2018-Jun-18 23:19 UTC.
Position N 29°34' W 090°29'.

Length 21 m; draft 2.8 m.

Type: Towing. MMSI: 367592640.

Date/timePositionNaut miles runAvg speedWind from/ knotsBaromVisibWave heightAir tempDewpointWater temp
2018-Jun-11 04:44N 29°34' W 090°29'2 7.8
2018-Jun-11 04:30N 29°34' W 090°31'4 7.6
2018-Jun-11 04:00N 29°35' W 090°35'4 7.3
2018-Jun-11 03:30N 29°36' W 090°39'3 5.6
2018-Jun-11 03:00N 29°36' W 090°43'3 6.7
2018-Jun-11 02:30N 29°34' W 090°45'4 7.1
2018-Jun-11 02:00N 29°32' W 090°49'1 0.0
2018-Jun-10 01:03N 29°32' W 090°50'0 6.0
2018-Jun-10 00:59N 29°32' W 090°50'3 5.9
2018-Jun-10 00:30N 29°32' W 090°46'3 5.1
2018-Jun-10 00:00N 29°34' W 090°44'1 2.6
2018-Jun-09 23:30N 29°34' W 090°43'3 5.6
2018-Jun-09 23:00N 29°31' W 090°43'3 5.9
2018-Jun-09 22:30N 29°28' W 090°43'  
2018-Jun-05 16:24N 29°24' W 090°44'3 6.9
2018-Jun-05 16:00N 29°27' W 090°43'3 6.7
2018-Jun-05 15:30N 29°30' W 090°43'3 6.2
2018-Jun-05 15:01N 29°33' W 090°43'1 2.0
2018-Jun-05 14:30N 29°34' W 090°44'2 4.8
2018-Jun-05 14:00N 29°32' W 090°46'3 6.7
2018-Jun-05 13:30N 29°32' W 090°49'62 4.0
2018-Jun-04 21:55N 29°50' W 091°58'2 5.3
2018-Jun-04 21:30N 29°50' W 092°00'3 5.4
2018-Jun-04 21:01N 29°49' W 092°03'3 5.5
2018-Jun-04 20:30N 29°48' W 092°06'3 5.5
2018-Jun-04 20:01N 29°47' W 092°09'2 4.3
2018-Jun-04 19:30N 29°47' W 092°12'1 1.7
2018-Jun-04 19:00N 29°47' W 092°12'1 1.3
2018-Jun-04 18:30N 29°47' W 092°13'1 1.7
2018-Jun-04 18:01N 29°48' W 092°14'2 3.4
2018-Jun-04 17:30N 29°48' W 092°16'2 3.1
2018-Jun-04 17:01N 29°49' W 092°17'0 0.1
2018-Jun-04 16:30N 29°49' W 092°17'0 0.0
2018-Jun-04 16:00N 29°49' W 092°17'1 1.1
2018-Jun-04 15:30N 29°50' W 092°18'2 3.9
2018-Jun-04 15:00N 29°50' W 092°20'3 4.9
2018-Jun-04 14:26N 29°52' W 092°22'36 4.9
2018-Jun-04 07:09N 29°56' W 093°04'1 4.1
2018-Jun-04 07:00N 29°56' W 093°04'2 4.3
2018-Jun-04 06:30N 29°56' W 093°07'3 5.0
2018-Jun-04 06:01N 29°56' W 093°10'3 5.2
2018-Jun-04 05:30N 29°58' W 093°11'2 4.6
2018-Jun-04 04:59N 29°60' W 093°13'2 4.3
2018-Jun-04 04:30N 30°02' W 093°15'2 4.0
2018-Jun-04 04:01N 30°03' W 093°16'2 4.1
2018-Jun-04 03:30N 30°05' W 093°17'1 1.2
2018-Jun-04 03:01N 30°05' W 093°18'1 1.1
2018-Jun-04 02:30N 30°06' W 093°18'0 0.0
2018-Jun-04 02:01N 30°06' W 093°18'0 0.0
2018-Jun-04 01:30N 30°06' W 093°18'0 0.0
2018-Jun-04 01:00N 30°06' W 093°18'0 0.0
2018-Jun-04 00:31N 30°06' W 093°18'0 0.0
2018-Jun-04 00:00N 30°06' W 093°18'0 0.1
2018-Jun-03 23:30N 30°06' W 093°18'0 0.2
2018-Jun-03 23:00N 30°06' W 093°18'2 3.1
2018-Jun-03 22:31N 30°05' W 093°20'2 4.6
2018-Jun-03 22:00N 30°04' W 093°22'2 4.1
2018-Jun-03 21:31N 30°04' W 093°24'2 4.6
2018-Jun-03 21:00N 30°04' W 093°27'3 5.7
2018-Jun-03 20:31N 30°04' W 093°30'3 5.6
2018-Jun-03 20:00N 30°04' W 093°33'3 5.6
2018-Jun-03 19:30N 30°04' W 093°37'3 6.1
2018-Jun-03 19:00N 30°04' W 093°40'3 5.9
2018-Jun-03 18:31N 30°03' W 093°43'3 5.6
2018-Jun-03 18:01N 30°01' W 093°45'3 5.9
2018-Jun-03 17:31N 29°59' W 093°48'3 5.7
2018-Jun-03 17:00N 29°58' W 093°51'3 6.7
2018-Jun-03 16:30N 29°55' W 093°53'3 6.7
2018-Jun-03 16:00N 29°53' W 093°56'3 6.6
2018-Jun-03 15:30N 29°50' W 093°57'3 5.5
2018-Jun-03 15:01N 29°47' W 093°57'3 5.3
2018-Jun-03 14:30N 29°46' W 093°54'2 4.4
2018-Jun-03 14:01N 29°44' W 093°52'0 0.4
2018-Jun-03 13:30N 29°44' W 093°52'0 0.1
2018-Jun-03 13:00N 29°44' W 093°52'0 0.0
2018-Jun-03 12:31N 29°44' W 093°52'0 0.0
2018-Jun-03 12:00N 29°44' W 093°52'0 0.0
2018-Jun-03 11:30N 29°44' W 093°52'0 0.0
2018-Jun-03 11:00N 29°44' W 093°52'0 0.0
2018-Jun-03 10:28N 29°44' W 093°52'0 0.0
2018-Jun-03 10:00N 29°44' W 093°52'0 0.0
2018-Jun-03 09:31N 29°44' W 093°52'0 0.0
2018-Jun-03 09:00N 29°44' W 093°52'0 0.0
2018-Jun-03 08:30N 29°44' W 093°52'0 0.0
2018-Jun-03 08:00N 29°44' W 093°52'0 0.0
2018-Jun-03 07:30N 29°44' W 093°52'0 0.0
2018-Jun-03 07:00N 29°44' W 093°52'0 0.0
2018-Jun-03 06:30N 29°44' W 093°52'0 0.0
2018-Jun-03 06:00N 29°44' W 093°52'0 0.0
2018-Jun-03 05:30N 29°44' W 093°52'0 0.0
2018-Jun-03 05:01N 29°44' W 093°52'0 0.0
2018-Jun-03 04:31N 29°44' W 093°52'0 0.0
2018-Jun-03 04:00N 29°44' W 093°52'0 0.0
2018-Jun-03 03:30N 29°44' W 093°52'0 0.0
2018-Jun-03 03:00N 29°44' W 093°52'0 0.0
2018-Jun-03 02:31N 29°44' W 093°52'0 0.0
2018-Jun-03 02:00N 29°44' W 093°52'0 0.0
2018-Jun-03 01:30N 29°44' W 093°52'0 0.0
2018-Jun-03 01:00N 29°44' W 093°52'0 0.0
2018-Jun-03 00:30N 29°44' W 093°52'0 0.0
2018-Jun-03 00:01N 29°44' W 093°52'0 0.0
2018-Jun-02 23:30N 29°44' W 093°52'0 0.0
2018-Jun-02 23:00N 29°44' W 093°52'0 0.0
2018-Jun-02 22:30N 29°44' W 093°52'0 0.0
2018-Jun-02 22:00N 29°44' W 093°52'0 0.0
2018-Jun-02 21:31N 29°44' W 093°52'0 0.0
2018-Jun-02 21:00N 29°44' W 093°52'0 0.0
2018-Jun-02 20:30N 29°44' W 093°52'0 0.0
2018-Jun-02 20:00N 29°44' W 093°52'0 0.0
2018-Jun-02 19:30N 29°44' W 093°52'0 0.0
2018-Jun-02 19:00N 29°44' W 093°52'0 0.0
2018-Jun-02 18:31N 29°44' W 093°52'0 0.0
2018-Jun-02 18:01N 29°44' W 093°52'0 0.0
2018-Jun-02 17:31N 29°44' W 093°52'0 0.0
2018-Jun-02 17:00N 29°44' W 093°52'0 0.0
2018-Jun-02 16:30N 29°44' W 093°52'0 0.0
2018-Jun-02 16:00N 29°44' W 093°52'0 0.0
2018-Jun-02 15:31N 29°44' W 093°52'0 0.0
2018-Jun-02 15:00N 29°44' W 093°52'0 0.0
2018-Jun-02 14:30N 29°44' W 093°52'0 0.0
2018-Jun-02 14:01N 29°44' W 093°52'0 0.0
2018-Jun-02 13:31N 29°44' W 093°52'0 0.0
2018-Jun-02 13:01N 29°44' W 093°52'0 0.0
2018-Jun-02 12:30N 29°44' W 093°52'0 0.0
2018-Jun-02 11:59N 29°44' W 093°52'0 0.0
2018-Jun-02 11:30N 29°44' W 093°52'0 0.0
2018-Jun-02 11:00N 29°44' W 093°52'0 0.0
2018-Jun-02 10:31N 29°44' W 093°52'0 0.0
2018-Jun-02 10:01N 29°44' W 093°52'0 0.0
2018-Jun-02 09:30N 29°44' W 093°52'0 0.0
2018-Jun-02 09:01N 29°44' W 093°52'0 0.0
2018-Jun-02 08:31N 29°44' W 093°52'0 0.0
2018-Jun-02 08:00N 29°44' W 093°52'0 0.0
2018-Jun-02 07:30N 29°44' W 093°52'0 0.0
2018-Jun-02 07:01N 29°44' W 093°52'0 0.0
2018-Jun-02 06:31N 29°44' W 093°52'0 0.0
2018-Jun-02 06:00N 29°44' W 093°52'0 0.0
2018-Jun-02 05:31N 29°44' W 093°52'0 0.0
2018-Jun-02 05:00N 29°44' W 093°52'0 0.0
2018-Jun-02 04:31N 29°44' W 093°52'0 0.0
2018-Jun-02 04:00N 29°44' W 093°52'0 0.0
2018-Jun-02 03:30N 29°44' W 093°52'0 0.0
2018-Jun-02 03:01N 29°44' W 093°52'0 0.0
2018-Jun-02 02:30N 29°44' W 093°52'0 0.0
2018-Jun-02 02:00N 29°44' W 093°52'0 0.0
2018-Jun-02 01:29N 29°44' W 093°52'0 0.0
2018-Jun-02 01:00N 29°44' W 093°52'0 0.0
2018-Jun-02 00:30N 29°44' W 093°52'0 0.0
2018-Jun-02 00:00N 29°44' W 093°52'0 0.0
2018-Jun-01 23:31N 29°44' W 093°52'0 0.0
2018-Jun-01 23:01N 29°44' W 093°52'0 0.0
2018-Jun-01 22:31N 29°44' W 093°52'0 0.0
2018-Jun-01 22:00N 29°44' W 093°52'0 0.0
2018-Jun-01 21:30N 29°44' W 093°52'0 0.0
2018-Jun-01 21:01N 29°44' W 093°52'0 0.0
2018-Jun-01 20:31N 29°44' W 093°52'0 0.0
2018-Jun-01 20:00N 29°44' W 093°52'0 0.0
2018-Jun-01 19:31N 29°44' W 093°52'0 0.0
2018-Jun-01 19:00N 29°44' W 093°52'0 0.0
2018-Jun-01 18:31N 29°44' W 093°52'0 0.0
2018-Jun-01 18:00N 29°44' W 093°52'0 0.0
2018-Jun-01 17:30N 29°44' W 093°52'0 0.0
2018-Jun-01 17:01N 29°44' W 093°52'0 0.0
2018-Jun-01 16:30N 29°44' W 093°52'0 0.0
2018-Jun-01 16:00N 29°44' W 093°52'0 0.0
2018-Jun-01 15:30N 29°44' W 093°52'0 0.0
2018-Jun-01 15:01N 29°44' W 093°52'0 0.0
2018-Jun-01 14:31N 29°44' W 093°52'0 0.0
2018-Jun-01 14:00N 29°44' W 093°52'0 0.0
2018-Jun-01 13:30N 29°44' W 093°52'0 0.0
2018-Jun-01 13:00N 29°44' W 093°52'0 0.0
2018-Jun-01 12:31N 29°44' W 093°52'0 0.1
2018-Jun-01 12:00N 29°44' W 093°52'0 0.0
2018-Jun-01 11:31N 29°44' W 093°52'0 0.0
2018-Jun-01 11:00N 29°44' W 093°52'0 0.0
2018-Jun-01 10:30N 29°44' W 093°52'0 0.0
2018-Jun-01 10:00N 29°44' W 093°52'0 0.0
2018-Jun-01 09:30N 29°44' W 093°52'0 0.0
2018-Jun-01 09:01N 29°44' W 093°52'0 0.0
2018-Jun-01 08:31N 29°44' W 093°52'0 0.0
2018-Jun-01 08:00N 29°44' W 093°52'0 0.0
2018-Jun-01 07:31N 29°44' W 093°52'0 0.0
2018-Jun-01 06:59N 29°44' W 093°52'0 0.0
2018-Jun-01 06:29N 29°44' W 093°52'0 0.0
2018-Jun-01 06:00N 29°44' W 093°52'0 0.0
2018-Jun-01 05:30N 29°44' W 093°52'0 0.0
2018-Jun-01 05:01N 29°44' W 093°52'  

Dump ship's entire track history